createdAt,value
2023-01-11T00:03:02.384Z,100502.94
2023-01-11T00:06:10.627Z,100515.16
2023-01-11T00:09:32.646Z,100507.13
2023-01-11T00:12:34.892Z,100516.09
2023-01-11T00:15:49.685Z,100512.09
2023-01-11T00:18:58.267Z,100517.09
2023-01-11T00:22:12.668Z,100518.37
2023-01-11T00:25:14.526Z,100505.16
2023-01-11T00:28:29.640Z,100509.50
2023-01-11T00:31:44.630Z,100505.25
2023-01-11T00:35:00.644Z,100508.22
2023-01-11T00:38:15.613Z,100505.91
2023-01-11T00:41:24.316Z,100509.84
2023-01-11T00:44:32.648Z,100514.66
2023-01-11T00:47:41.304Z,100512.09
2023-01-11T00:50:58.624Z,100525.59
2023-01-11T00:54:00.525Z,100520.28
2023-01-11T00:57:15.635Z,100522.38
2023-01-11T01:00:31.656Z,100534.59
2023-01-11T01:03:40.392Z,100538.06
2023-01-11T01:06:55.694Z,100538.78
2023-01-11T01:10:13.392Z,100548.03
2023-01-11T01:13:21.642Z,100555.75
2023-01-11T01:16:30.598Z,100555.16
2023-01-11T01:19:45.648Z,100565.78
2023-01-11T01:22:54.659Z,100560.47
2023-01-11T01:26:04.734Z,100559.13
2023-01-11T01:29:12.649Z,100561.63
2023-01-11T01:32:21.418Z,100577.56
2023-01-11T01:35:36.637Z,100571.09
2023-01-11T01:38:51.648Z,100567.66
2023-01-11T01:42:00.403Z,100566.75
2023-01-11T01:45:23.649Z,100572.06
2023-01-11T01:48:32.474Z,100561.91
2023-01-11T01:51:48.641Z,100564.50
2023-01-11T01:55:09.688Z,100561.28
2023-01-11T01:58:27.673Z,100570.16
2023-01-11T02:01:56.047Z,100562.22
2023-01-11T02:05:04.642Z,100557.97
2023-01-11T02:08:33.632Z,100563.63
2023-01-11T02:11:42.586Z,100582.28
2023-01-11T02:15:00.624Z,100591.78
2023-01-11T02:18:02.450Z,100588.06
2023-01-11T02:21:38.635Z,100587.03
2023-01-11T02:25:07.656Z,100579.22
2023-01-11T02:28:34.611Z,100584.75
2023-01-11T02:32:01.645Z,100576.06
2023-01-11T02:35:35.172Z,100576.31
2023-01-11T02:39:22.648Z,100590.63
2023-01-11T02:42:45.681Z,100584.19
2023-01-11T02:45:59.456Z,100586.63
2023-01-11T02:49:40.631Z,100579.72
2023-01-11T02:53:09.619Z,100602.16
2023-01-11T02:56:16.407Z,100599.97
2023-01-11T02:59:37.610Z,100605.06
2023-01-11T03:02:46.224Z,100600.69
2023-01-11T03:06:02.647Z,100611.28
2023-01-11T03:09:36.701Z,100621.13
2023-01-11T03:13:14.621Z,100623.97
2023-01-11T03:16:56.656Z,100610.84
2023-01-11T03:20:09.361Z,100619.94
2023-01-11T03:23:45.625Z,100619.06
2023-01-11T03:26:59.733Z,100627.81
2023-01-11T03:30:27.664Z,100635.22
2023-01-11T03:33:46.555Z,100635.41
2023-01-11T03:37:07.621Z,100635.22
2023-01-11T03:40:51.616Z,100625.38
2023-01-11T03:44:03.222Z,100636.69
2023-01-11T03:47:21.609Z,100619.53
2023-01-11T03:50:27.133Z,100614.59
2023-01-11T03:53:45.600Z,100613.09
2023-01-11T03:56:53.263Z,100611.38
2023-01-11T04:00:08.625Z,100605.72
2023-01-11T04:03:11.008Z,100591.66
2023-01-11T04:06:26.660Z,100574.03
2023-01-11T04:09:42.628Z,100593.53
2023-01-11T04:12:57.611Z,100611.00
2023-01-11T04:16:12.676Z,100609.41
2023-01-11T04:19:14.475Z,100608.94
2023-01-11T04:22:29.628Z,100607.34
2023-01-11T04:25:38.659Z,100610.56
2023-01-11T04:28:54.509Z,100598.12
2023-01-11T04:32:10.615Z,100589.34
2023-01-11T04:35:12.481Z,100584.41
2023-01-11T04:38:27.606Z,100617.38
2023-01-11T04:41:35.666Z,100642.69
2023-01-11T04:44:54.614Z,100660.22
2023-01-11T04:48:09.636Z,100647.66
2023-01-11T04:51:18.764Z,100653.66
2023-01-11T04:54:33.602Z,100642.25
2023-01-11T04:57:50.596Z,100639.03
2023-01-11T05:01:05.671Z,100634.06
2023-01-11T05:04:14.345Z,100656.19
2023-01-11T05:07:22.671Z,100654.69
2023-01-11T05:10:44.650Z,100642.38
2023-01-11T05:13:46.747Z,100645.38
2023-01-11T05:17:01.687Z,100652.28
2023-01-11T05:20:03.992Z,100663.22
2023-01-11T05:23:18.660Z,100660.22
2023-01-11T05:26:30.309Z,100656.75
2023-01-11T05:29:38.650Z,100656.19
2023-01-11T05:32:53.670Z,100660.78
2023-01-11T05:36:03.846Z,100650.66
2023-01-11T05:39:20.676Z,100647.66
2023-01-11T05:42:35.659Z,100648.09
2023-01-11T05:45:44.231Z,100642.47
2023-01-11T05:48:52.661Z,100640.63
2023-01-11T05:52:07.662Z,100653.31
2023-01-11T05:55:22.646Z,100651.69
2023-01-11T05:58:38.671Z,100635.47
2023-01-11T06:01:40.649Z,100641.09
2023-01-11T06:04:55.674Z,100633.03
2023-01-11T06:07:57.518Z,100623.47
2023-01-11T06:11:19.655Z,100629.22
2023-01-11T06:14:28.303Z,100631.88
2023-01-11T06:17:36.693Z,100638.31
2023-01-11T06:20:52.783Z,100625.66
2023-01-11T06:24:01.670Z,100623.47
2023-01-11T06:27:16.649Z,100641.53
2023-01-11T06:30:18.725Z,100641.31
2023-01-11T06:33:35.655Z,100638.09
2023-01-11T06:36:38.609Z,100651.91
2023-01-11T06:39:53.667Z,100624.28
2023-01-11T06:43:02.674Z,100645.22
2023-01-11T06:46:11.744Z,100648.78
2023-01-11T06:49:20.338Z,100660.19
2023-01-11T06:52:35.692Z,100655.72
2023-01-11T06:55:37.660Z,100667.94
2023-01-11T06:58:54.899Z,100681.97
2023-01-11T07:02:03.371Z,100689.91
2023-01-11T07:05:12.924Z,100695.53
2023-01-11T07:08:36.291Z,100711.06
2023-01-11T07:12:02.023Z,100710.16
2023-01-11T07:15:12.751Z,100707.06
2023-01-11T07:18:28.865Z,100722.94
2023-01-11T07:21:31.553Z,100729.94
2023-01-11T07:24:48.457Z,100732.91
2023-01-11T07:27:59.249Z,100726.59
2023-01-11T07:31:08.681Z,100723.84
2023-01-11T07:34:24.661Z,100718.78
2023-01-11T07:37:28.360Z,100723.53
2023-01-11T07:40:44.629Z,100720.38
2023-01-11T07:43:53.360Z,100721.87
2023-01-11T07:47:01.709Z,100730.66
2023-01-11T07:50:17.668Z,100729.81
2023-01-11T07:53:19.729Z,100721.56
2023-01-11T07:56:37.647Z,100719.50
2023-01-11T07:59:40.034Z,100716.38
2023-01-11T08:02:58.738Z,100734.12
2023-01-11T08:06:00.978Z,100738.16
2023-01-11T08:09:16.690Z,100736.31
2023-01-11T08:12:38.631Z,100731.97
2023-01-11T08:15:40.909Z,100740.75
2023-01-11T08:18:55.623Z,100746.28
2023-01-11T08:22:10.660Z,100740.97
2023-01-11T08:25:12.512Z,100747.22
2023-01-11T08:28:28.054Z,100742.13
2023-01-11T08:31:36.455Z,100751.72
2023-01-11T08:34:51.649Z,100745.94
2023-01-11T08:38:00.246Z,100751.81
2023-01-11T08:41:09.647Z,100760.94
2023-01-11T08:44:33.684Z,100757.78
2023-01-11T08:47:53.661Z,100755.78
2023-01-11T08:51:01.659Z,100757.84
2023-01-11T08:54:12.817Z,100750.53
2023-01-11T08:57:27.641Z,100752.84
2023-01-11T09:00:42.646Z,100739.69
2023-01-11T09:03:57.645Z,100760.16
2023-01-11T09:07:00.141Z,100761.00
2023-01-11T09:10:21.622Z,100762.16
2023-01-11T09:13:29.672Z,100758.41
2023-01-11T09:16:38.225Z,100754.03
2023-01-11T09:19:52.690Z,100761.66
2023-01-11T09:23:03.005Z,100766.34
2023-01-11T09:26:18.641Z,100755.37
2023-01-11T09:29:30.596Z,100758.91
2023-01-11T09:32:39.715Z,100757.84
2023-01-11T09:35:48.427Z,100753.47
2023-01-11T09:39:05.706Z,100753.84
2023-01-11T09:42:34.875Z,100752.84
2023-01-11T09:45:40.953Z,100757.97
2023-01-11T09:49:01.762Z,100750.88
2023-01-11T09:52:26.126Z,100747.31
2023-01-11T09:55:48.690Z,100751.72
2023-01-11T09:59:46.872Z,100734.22
2023-01-11T10:03:13.771Z,100725.75
2023-01-11T10:06:30.778Z,100719.91
2023-01-11T10:18:41.726Z,100719.16
2023-01-11T10:21:25.235Z,100721.06
2023-01-11T10:24:51.896Z,100710.88
2023-01-11T10:28:29.428Z,100709.81
2023-01-11T10:31:37.712Z,100708.75
2023-01-11T10:34:46.698Z,100705.50
2023-01-11T10:37:57.642Z,100707.91
2023-01-11T10:41:43.267Z,100704.75
2023-01-11T10:44:57.640Z,100710.84
2023-01-11T10:48:36.666Z,100707.63
2023-01-11T10:51:45.535Z,100720.91
2023-01-11T10:55:00.646Z,100716.28
2023-01-11T10:58:35.595Z,100711.19
2023-01-11T11:01:55.659Z,100706.88
2023-01-11T11:05:33.921Z,100707.94
2023-01-11T11:09:00.637Z,100712.97
2023-01-11T11:12:29.663Z,100701.31
2023-01-11T11:15:50.524Z,100683.97
2023-01-11T11:19:05.639Z,100678.44
2023-01-11T11:22:14.263Z,100678.69
2023-01-11T11:25:53.023Z,100679.22
2023-01-11T11:29:06.386Z,100673.34
2023-01-11T11:32:26.010Z,100682.44
2023-01-11T11:35:47.652Z,100669.09
2023-01-11T11:39:11.875Z,100645.56
2023-01-11T11:42:28.730Z,100677.09
2023-01-11T11:45:37.658Z,100674.44
2023-01-11T11:49:11.135Z,100672.84
2023-01-11T11:52:22.695Z,100669.06
2023-01-11T11:55:34.451Z,100663.97
2023-01-11T11:58:47.629Z,100670.94
2023-01-11T12:02:06.609Z,100680.03
2023-01-11T12:05:16.687Z,100676.06
2023-01-11T12:08:26.611Z,100672.59
2023-01-11T12:11:57.386Z,100667.19
2023-01-11T12:15:18.986Z,100670.97
2023-01-11T12:18:45.653Z,100671.22
2023-01-11T12:22:23.643Z,100668.56
2023-01-11T12:25:27.724Z,100679.78
2023-01-11T12:29:06.701Z,100676.03
2023-01-11T12:32:40.605Z,100676.03
2023-01-11T12:36:05.634Z,100673.63
2023-01-11T12:39:25.993Z,100683.50
2023-01-11T12:43:18.662Z,100685.91
2023-01-11T12:46:48.632Z,100684.31
2023-01-11T12:49:59.494Z,100680.84
2023-01-11T12:53:24.641Z,100678.16
2023-01-11T12:56:44.097Z,100676.84
2023-01-11T13:00:18.635Z,100674.97
2023-01-11T13:04:12.162Z,100677.09
2023-01-11T13:08:01.825Z,100670.69
2023-01-11T13:12:02.625Z,100660.00
2023-01-11T13:15:27.916Z,100655.22
2023-01-11T13:18:47.623Z,100666.44
2023-01-11T13:21:58.639Z,100649.84
2023-01-11T13:25:41.714Z,100666.41
2023-01-11T13:28:55.632Z,100675.50
2023-01-11T13:32:18.629Z,100677.63
2023-01-11T13:35:40.243Z,100676.00
2023-01-11T13:39:23.626Z,100679.78
2023-01-11T13:42:39.535Z,100680.81
2023-01-11T13:45:58.731Z,100680.28
2023-01-11T13:49:22.647Z,100678.66
2023-01-11T13:52:46.566Z,100680.81
2023-01-11T13:56:00.939Z,100688.81
2023-01-11T13:59:17.023Z,100685.06
2023-01-11T14:02:48.631Z,100689.84
2023-01-11T14:06:42.701Z,100693.59
2023-01-11T14:10:22.740Z,100686.69
2023-01-11T14:13:58.639Z,100678.63
2023-01-11T14:17:39.638Z,100680.22
2023-01-11T14:20:50.698Z,100675.44
2023-01-11T14:24:08.626Z,100679.97
2023-01-11T14:27:33.625Z,100672.19
2023-01-11T14:30:48.288Z,100680.72
2023-01-11T14:34:15.627Z,100672.69
2023-01-11T14:37:54.529Z,100673.72
2023-01-11T14:41:09.655Z,100676.06
2023-01-11T14:44:46.118Z,100678.47
2023-01-11T14:48:15.006Z,100671.47
2023-01-11T14:51:33.358Z,100652.97
2023-01-11T14:54:51.628Z,100666.63
2023-01-11T14:58:10.607Z,100669.75
2023-01-11T15:01:26.663Z,100670.53
2023-01-11T15:04:33.121Z,100678.22
2023-01-11T15:07:48.635Z,100676.00
2023-01-11T15:10:59.104Z,100674.34
2023-01-11T15:14:44.612Z,100675.88
2023-01-11T15:17:55.353Z,100671.53
2023-01-11T15:21:13.616Z,100668.22
2023-01-11T15:24:29.815Z,100670.22
2023-01-11T15:27:45.624Z,100683.41
2023-01-11T15:30:54.325Z,100679.03
2023-01-11T15:34:30.630Z,100674.41
2023-01-11T15:37:52.414Z,100681.37
2023-01-11T15:41:04.614Z,100683.75
2023-01-11T15:44:57.662Z,100678.25
2023-01-11T15:48:18.270Z,100676.78
2023-01-11T15:51:42.626Z,100685.16
2023-01-11T15:55:15.636Z,100685.56
2023-01-11T15:58:30.533Z,100686.19
2023-01-11T16:01:52.628Z,100676.41
2023-01-11T16:05:15.992Z,100683.50
2023-01-11T16:08:38.612Z,100683.66
2023-01-11T16:12:13.623Z,100681.19
2023-01-11T16:15:32.822Z,100685.28
2023-01-11T16:18:46.621Z,100683.25
2023-01-11T16:21:56.864Z,100678.91
2023-01-11T16:25:07.624Z,100683.09
2023-01-11T16:28:22.642Z,100675.44
2023-01-11T16:31:52.945Z,100678.81
2023-01-11T16:35:09.598Z,100679.72
2023-01-11T16:38:21.403Z,100673.03
2023-01-11T16:42:06.633Z,100677.22
2023-01-11T16:45:29.645Z,100688.34
2023-01-11T16:48:38.557Z,100689.22
2023-01-11T16:51:53.642Z,100680.34
2023-01-11T16:55:09.104Z,100675.75
2023-01-11T16:58:35.649Z,100671.66
2023-01-11T17:02:02.715Z,100684.00
2023-01-11T17:05:29.622Z,100681.50
2023-01-11T17:08:46.696Z,100681.75
2023-01-11T17:12:02.038Z,100685.88
2023-01-11T17:15:37.672Z,100676.22
2023-01-11T17:18:46.398Z,100679.94
2023-01-11T17:22:09.681Z,100678.00
2023-01-11T17:25:44.319Z,100681.00
2023-01-11T17:29:02.653Z,100693.81
2023-01-11T17:32:18.619Z,100672.94
2023-01-11T17:35:36.653Z,100677.66
2023-01-11T17:38:38.760Z,100669.97
2023-01-11T17:41:54.620Z,100680.59
2023-01-11T17:45:23.623Z,100688.53
2023-01-11T17:48:33.636Z,100691.06
2023-01-11T17:51:48.699Z,100694.41
2023-01-11T17:55:18.030Z,100681.53
2023-01-11T17:58:34.640Z,100692.84
2023-01-11T18:01:49.193Z,100692.72
2023-01-11T18:05:05.645Z,100712.16
2023-01-11T18:08:20.420Z,100716.31
2023-01-11T18:11:40.643Z,100714.84
2023-01-11T18:14:59.674Z,100707.22
2023-01-11T18:18:42.001Z,100714.34
2023-01-11T18:22:02.627Z,100731.63
2023-01-11T18:25:24.928Z,100737.25
2023-01-11T18:28:42.615Z,100736.69
2023-01-11T18:31:51.894Z,100732.84
2023-01-11T18:35:06.629Z,100727.66
2023-01-11T18:38:23.594Z,100724.44
2023-01-11T18:41:25.507Z,100722.25
2023-01-11T18:44:42.937Z,100738.69
2023-01-11T18:47:45.329Z,100744.66
2023-01-11T18:51:01.606Z,100741.44
2023-01-11T18:54:03.599Z,100739.47
2023-01-11T18:57:18.625Z,100739.31
2023-01-11T19:00:38.623Z,100747.41
2023-01-11T19:03:47.608Z,100751.63
2023-01-11T19:07:03.643Z,100729.41
2023-01-11T19:10:12.602Z,100732.19
2023-01-11T19:13:34.626Z,100736.19
2023-01-11T19:16:43.960Z,100743.25
2023-01-11T19:19:54.044Z,100742.22
2023-01-11T19:23:03.656Z,100750.72
2023-01-11T19:26:19.919Z,100755.91
2023-01-11T19:29:29.370Z,100739.09
2023-01-11T19:32:38.948Z,100736.03
2023-01-11T19:35:55.002Z,100756.16
2023-01-11T19:39:10.650Z,100756.81
2023-01-11T19:42:19.681Z,100769.28
2023-01-11T19:45:35.639Z,100773.16
2023-01-11T19:48:37.863Z,100783.53
2023-01-11T19:51:53.626Z,100789.25
2023-01-11T19:55:09.612Z,100784.19
2023-01-11T19:58:26.060Z,100777.16
2023-01-11T20:01:29.877Z,100783.03
2023-01-11T20:04:47.019Z,100784.94
2023-01-11T20:07:49.470Z,100784.19
2023-01-11T20:11:17.983Z,100786.91
2023-01-11T20:14:27.688Z,100791.97
2023-01-11T20:17:44.009Z,100783.69
2023-01-11T20:20:56.600Z,100782.50
2023-01-11T20:24:05.626Z,100773.97
2023-01-11T20:27:21.941Z,100777.28
2023-01-11T20:30:31.151Z,100769.19
2023-01-11T20:33:40.031Z,100773.75
2023-01-11T20:36:48.766Z,100782.28
2023-01-11T20:39:58.028Z,100780.66
2023-01-11T20:43:06.874Z,100781.47
2023-01-11T20:46:15.623Z,100788.81
2023-01-11T20:49:40.659Z,100786.16
2023-01-11T20:52:43.550Z,100787.56
2023-01-11T20:55:59.592Z,100786.81
2023-01-11T21:02:24.608Z,100802.28
2023-01-11T21:05:33.604Z,100799.87
2023-01-11T21:08:42.643Z,100812.50
2023-01-11T21:11:51.614Z,100808.28
2023-01-11T21:15:13.578Z,100815.69
2023-01-11T21:18:22.583Z,100820.44
2023-01-11T21:21:44.570Z,100798.81
2023-01-11T21:24:59.589Z,100808.88
2023-01-11T21:28:01.493Z,100814.00
2023-01-11T21:31:18.604Z,100815.63
2023-01-11T21:34:33.615Z,100818.88
2023-01-11T21:37:42.241Z,100819.75
2023-01-11T21:40:58.592Z,100818.53
2023-01-11T21:44:00.667Z,100825.66
2023-01-11T21:47:15.585Z,100818.53
2023-01-11T21:50:23.621Z,100828.12
2023-01-11T21:53:33.152Z,100818.62
2023-01-11T21:56:47.582Z,100826.31
2023-01-11T21:59:49.520Z,100829.50
2023-01-11T22:03:04.605Z,100826.19
2023-01-11T22:06:19.583Z,100828.25
2023-01-11T22:09:22.012Z,100835.72
2023-01-11T22:12:43.576Z,100837.94
2023-01-11T22:15:52.247Z,100835.12
2023-01-11T22:19:07.610Z,100842.28
2023-01-11T22:22:16.696Z,100835.41
2023-01-11T22:25:31.575Z,100832.38
2023-01-11T22:28:40.595Z,100836.06
2023-01-11T22:31:56.664Z,100829.19
2023-01-11T22:35:11.633Z,100831.81
2023-01-11T22:38:13.506Z,100838.94
2023-01-11T22:41:30.591Z,100845.06
2023-01-11T22:44:32.530Z,100850.19
2023-01-11T22:47:47.595Z,100850.81
2023-01-11T22:50:50.891Z,100845.41
2023-01-11T22:54:05.611Z,100852.09
2023-01-11T22:57:14.258Z,100839.91
2023-01-11T23:00:29.594Z,100843.97
2023-01-11T23:03:31.455Z,100847.84
2023-01-11T23:06:48.584Z,100847.63
2023-01-11T23:09:57.604Z,100846.81
2023-01-11T23:13:19.605Z,100843.56
2023-01-11T23:16:34.587Z,100840.06
2023-01-11T23:19:39.339Z,100837.03
2023-01-11T23:22:58.569Z,100838.22
2023-01-11T23:26:00.469Z,100837.78
2023-01-11T23:29:16.577Z,100838.22
2023-01-11T23:32:25.417Z,100839.06
2023-01-11T23:35:33.599Z,100844.38
2023-01-11T23:38:49.615Z,100846.03
2023-01-11T23:41:58.592Z,100844.84
2023-01-11T23:45:07.793Z,100835.91
2023-01-11T23:48:22.558Z,100833.91
2023-01-11T23:51:31.763Z,100824.56
2023-01-11T23:54:40.642Z,100833.09
2023-01-11T23:57:49.312Z,100827.03
